createdAt,value
2023-01-25T00:01:24.027Z,21.57
2023-01-25T00:03:52.465Z,20.43
2023-01-25T00:06:22.505Z,21.87
2023-01-25T00:08:51.511Z,22.90
2023-01-25T00:11:20.422Z,21.30
2023-01-25T00:13:48.853Z,23.07
2023-01-25T00:16:17.654Z,21.40
2023-01-25T00:18:46.041Z,22.17
2023-01-25T00:21:15.790Z,21.07
2023-01-25T00:23:45.495Z,22.60
2023-01-25T00:26:13.874Z,21.03
2023-01-25T00:28:42.324Z,21.67
2023-01-25T00:31:18.589Z,23.33
2023-01-25T00:33:53.666Z,21.00
2023-01-25T00:36:43.104Z,21.30
2023-01-25T00:39:15.241Z,21.63
2023-01-25T00:41:45.139Z,21.60
2023-01-25T00:44:13.470Z,22.37
2023-01-25T00:46:41.805Z,23.00
2023-01-25T00:49:22.031Z,22.20
2023-01-25T00:51:50.528Z,21.10
2023-01-25T00:54:21.001Z,21.73
2023-01-25T00:56:49.408Z,22.53
2023-01-25T00:59:17.957Z,21.63
2023-01-25T01:01:46.315Z,20.43
2023-01-25T01:04:14.903Z,21.60
2023-01-25T01:06:44.381Z,22.27
2023-01-25T01:09:16.107Z,23.37
2023-01-25T01:11:45.969Z,22.50
2023-01-25T01:14:15.628Z,23.50
2023-01-25T01:16:44.188Z,22.73
2023-01-25T01:19:12.964Z,23.60
2023-01-25T01:21:42.785Z,24.77
2023-01-25T01:24:12.353Z,23.53
2023-01-25T01:26:40.816Z,23.97
2023-01-25T01:29:10.691Z,25.00
2023-01-25T01:31:39.103Z,24.90
2023-01-25T01:34:07.733Z,25.40
2023-01-25T01:36:36.129Z,23.53
2023-01-25T01:39:04.740Z,25.50
2023-01-25T01:41:33.003Z,26.03
2023-01-25T01:44:01.423Z,25.80
2023-01-25T01:46:37.252Z,25.70
2023-01-25T01:49:11.847Z,26.30
2023-01-25T01:51:48.581Z,25.67
2023-01-25T01:54:24.215Z,25.13
2023-01-25T01:56:59.864Z,25.40
2023-01-25T01:59:35.485Z,24.90
2023-01-25T02:02:05.725Z,25.60
2023-01-25T02:04:34.894Z,25.13
2023-01-25T02:07:11.276Z,25.37
2023-01-25T02:09:39.695Z,25.17
2023-01-25T02:12:10.928Z,27.33
2023-01-25T02:14:42.767Z,26.80
2023-01-25T02:17:13.205Z,26.10
2023-01-25T02:19:52.701Z,27.33
2023-01-25T02:22:32.344Z,26.73
2023-01-25T02:25:07.808Z,26.07
2023-01-25T02:27:40.849Z,25.93
2023-01-25T02:30:11.441Z,25.30
2023-01-25T02:32:39.919Z,25.93
2023-01-25T02:35:15.875Z,26.30
2023-01-25T02:37:44.295Z,25.27
2023-01-25T02:40:14.684Z,27.27
2023-01-25T02:42:45.236Z,27.70
2023-01-25T02:45:19.053Z,28.13
2023-01-25T02:47:48.672Z,27.00
2023-01-25T02:50:17.979Z,27.20
2023-01-25T02:52:46.522Z,27.87
2023-01-25T02:55:16.294Z,27.00
2023-01-25T02:57:44.834Z,26.97
2023-01-25T03:00:14.573Z,26.97
2023-01-25T03:02:43.086Z,28.47
2023-01-25T03:05:11.634Z,27.30
2023-01-25T03:07:39.949Z,27.17
2023-01-25T03:10:10.220Z,28.47
2023-01-25T03:12:40.099Z,27.33
2023-01-25T03:15:10.613Z,27.23
2023-01-25T03:17:39.184Z,28.37
2023-01-25T03:20:09.116Z,30.13
2023-01-25T03:22:48.940Z,30.30
2023-01-25T03:25:17.486Z,28.30
2023-01-25T03:27:47.499Z,28.43
2023-01-25T03:30:16.450Z,29.77
2023-01-25T03:32:45.035Z,28.17
2023-01-25T03:35:13.425Z,28.03
2023-01-25T03:37:42.026Z,28.13
2023-01-25T03:40:12.690Z,29.27
2023-01-25T03:42:41.042Z,29.60
2023-01-25T03:45:14.440Z,28.47
2023-01-25T03:47:43.333Z,28.47
2023-01-25T03:50:12.585Z,28.83
2023-01-25T03:52:43.034Z,27.83
2023-01-25T03:55:11.691Z,28.07
2023-01-25T03:57:40.104Z,28.93
2023-01-25T04:00:13.005Z,28.77
2023-01-25T04:02:41.457Z,28.37
2023-01-25T04:05:11.066Z,26.77
2023-01-25T04:07:39.766Z,27.80
2023-01-25T04:10:09.877Z,29.03
2023-01-25T04:12:38.388Z,28.17
2023-01-25T04:15:08.629Z,31.83
2023-01-25T04:17:38.468Z,28.50
2023-01-25T04:20:08.651Z,29.10
2023-01-25T04:22:37.067Z,29.93
2023-01-25T04:25:06.006Z,28.53
2023-01-25T04:27:34.395Z,28.20
2023-01-25T04:30:02.783Z,30.07
2023-01-25T04:32:31.213Z,29.63
2023-01-25T04:35:01.061Z,28.13
2023-01-25T04:37:29.924Z,29.67
2023-01-25T04:39:58.491Z,27.83
2023-01-25T04:42:26.876Z,30.67
2023-01-25T04:44:55.251Z,29.53
2023-01-25T04:47:23.775Z,29.10
2023-01-25T04:49:52.109Z,29.37
2023-01-25T04:52:21.847Z,30.37
2023-01-25T04:54:50.167Z,29.90
2023-01-25T04:57:18.510Z,28.57
2023-01-25T04:59:46.902Z,28.77
2023-01-25T05:02:15.485Z,30.00
2023-01-25T05:04:43.956Z,30.27
2023-01-25T05:07:12.334Z,30.83
2023-01-25T05:09:42.019Z,31.23
2023-01-25T05:12:13.618Z,29.57
2023-01-25T05:14:42.068Z,31.03
2023-01-25T05:17:11.332Z,30.87
2023-01-25T05:19:39.630Z,30.30
2023-01-25T05:22:11.560Z,30.30
2023-01-25T05:24:41.988Z,32.20
2023-01-25T05:27:10.834Z,33.57
2023-01-25T05:29:41.702Z,33.43
2023-01-25T05:32:12.428Z,29.43
2023-01-25T05:34:41.829Z,31.60
2023-01-25T05:37:12.196Z,31.67
2023-01-25T05:39:42.875Z,32.70
2023-01-25T05:42:13.828Z,32.47
2023-01-25T05:44:42.846Z,31.83
2023-01-25T05:47:15.283Z,31.90
2023-01-25T05:49:44.323Z,33.40
2023-01-25T05:52:15.018Z,31.90
2023-01-25T05:54:45.118Z,33.73
2023-01-25T05:57:15.638Z,33.27
2023-01-25T05:59:44.356Z,32.57
2023-01-25T06:02:12.755Z,34.43
2023-01-25T06:04:41.225Z,35.33
2023-01-25T06:07:09.728Z,34.70
2023-01-25T06:09:38.053Z,33.07
2023-01-25T06:12:08.269Z,33.63
2023-01-25T06:14:36.597Z,32.37
2023-01-25T06:17:04.943Z,33.27
2023-01-25T06:19:33.291Z,33.80
2023-01-25T06:22:01.635Z,34.07
2023-01-25T06:24:30.322Z,31.73
2023-01-25T06:26:58.685Z,31.70
2023-01-25T06:29:28.410Z,33.70
2023-01-25T06:31:56.954Z,33.60
2023-01-25T06:34:25.420Z,32.07
2023-01-25T06:36:53.828Z,32.37
2023-01-25T06:39:22.349Z,31.27
2023-01-25T06:41:50.854Z,31.53
2023-01-25T06:44:19.134Z,34.20
2023-01-25T06:46:49.029Z,33.73
2023-01-25T06:49:17.482Z,32.13
2023-01-25T06:51:45.853Z,31.43
2023-01-25T06:54:14.258Z,33.20
2023-01-25T06:56:42.941Z,32.37
2023-01-25T06:59:11.470Z,33.57
2023-01-25T07:01:39.931Z,32.23
2023-01-25T07:04:12.695Z,31.07
2023-01-25T07:06:41.373Z,32.63
2023-01-25T07:09:12.963Z,32.10
2023-01-25T07:11:41.339Z,32.80
2023-01-25T07:14:09.671Z,33.53
2023-01-25T07:16:38.688Z,32.40
2023-01-25T07:19:09.259Z,31.90
2023-01-25T07:21:37.703Z,33.73
2023-01-25T07:24:07.415Z,32.57
2023-01-25T07:26:35.855Z,32.43
2023-01-25T07:29:04.307Z,33.37
2023-01-25T07:31:32.751Z,34.00
2023-01-25T07:34:01.363Z,30.97
2023-01-25T07:36:32.308Z,31.27
2023-01-25T07:39:00.821Z,30.50
2023-01-25T07:41:29.618Z,31.40
2023-01-25T07:43:57.974Z,30.83
2023-01-25T07:46:26.380Z,31.83
2023-01-25T07:48:55.111Z,30.30
2023-01-25T07:51:25.100Z,30.23
2023-01-25T07:53:57.415Z,28.03
2023-01-25T07:56:27.726Z,28.70
2023-01-25T07:58:57.489Z,29.00
2023-01-25T08:01:28.456Z,30.83
2023-01-25T08:03:57.781Z,27.80
2023-01-25T08:06:30.792Z,28.97
2023-01-25T08:09:01.042Z,28.60
2023-01-25T08:11:32.873Z,26.23
2023-01-25T08:14:02.054Z,27.17
2023-01-25T08:16:32.413Z,28.13
2023-01-25T08:19:03.208Z,27.60
2023-01-25T08:21:34.023Z,27.90
2023-01-25T08:24:06.435Z,28.33
2023-01-25T08:26:35.869Z,28.37
2023-01-25T08:29:04.733Z,28.30
2023-01-25T08:31:35.618Z,27.77
2023-01-25T08:34:04.913Z,26.07
2023-01-25T08:36:33.878Z,26.70
2023-01-25T08:39:07.185Z,27.73
2023-01-25T08:41:36.694Z,26.73
2023-01-25T08:44:05.663Z,24.77
2023-01-25T08:46:35.281Z,27.10
2023-01-25T08:49:04.754Z,26.53
2023-01-25T08:51:34.568Z,27.20
2023-01-25T08:54:09.944Z,25.90
2023-01-25T08:56:39.147Z,27.27
2023-01-25T08:59:08.299Z,28.80
2023-01-25T09:01:36.681Z,27.80
2023-01-25T09:04:05.206Z,26.77
2023-01-25T09:06:35.141Z,28.03
2023-01-25T09:09:04.713Z,30.07
2023-01-25T09:11:37.140Z,28.23
2023-01-25T09:14:05.887Z,28.83
2023-01-25T09:16:35.553Z,29.53
2023-01-25T09:19:05.887Z,30.13
2023-01-25T09:21:35.170Z,27.73
2023-01-25T09:24:06.729Z,28.37
2023-01-25T09:26:40.244Z,26.87
2023-01-25T09:29:11.527Z,28.73
2023-01-25T09:31:43.678Z,26.57
2023-01-25T09:34:13.262Z,29.63
2023-01-25T09:36:41.684Z,29.07
2023-01-25T09:39:13.132Z,28.20
2023-01-25T09:42:25.262Z,29.20
2023-01-25T09:45:13.258Z,27.13
2023-01-25T09:47:49.704Z,27.10
2023-01-25T09:50:34.195Z,28.63
2023-01-25T09:53:35.064Z,29.03
2023-01-25T09:56:10.321Z,28.10
2023-01-25T09:58:44.997Z,29.53
2023-01-25T10:01:36.717Z,28.87
2023-01-25T10:04:13.167Z,26.83
2023-01-25T10:06:55.228Z,26.17
2023-01-25T10:09:38.932Z,29.13
2023-01-25T10:12:17.487Z,27.33
2023-01-25T10:14:47.676Z,28.30
2023-01-25T10:17:28.104Z,27.10
2023-01-25T10:20:16.466Z,28.80
2023-01-25T10:22:52.041Z,28.00
2023-01-25T10:25:29.441Z,29.53
2023-01-25T10:28:18.669Z,29.00
2023-01-25T10:30:58.212Z,29.03
2023-01-25T10:33:29.726Z,27.43
2023-01-25T10:36:00.168Z,29.07
2023-01-25T10:38:35.395Z,29.63
2023-01-25T10:41:09.317Z,28.40
2023-01-25T10:43:37.831Z,30.17
2023-01-25T10:46:21.750Z,29.50
2023-01-25T10:48:50.812Z,28.50
2023-01-25T10:51:32.426Z,29.37
2023-01-25T10:54:04.219Z,31.47
2023-01-25T10:56:36.201Z,30.17
2023-01-25T10:59:16.869Z,29.40
2023-01-25T11:01:46.841Z,28.73
2023-01-25T11:04:35.140Z,26.37
2023-01-25T11:07:06.205Z,27.50
2023-01-25T11:09:40.607Z,25.50
2023-01-25T11:12:20.140Z,25.77
2023-01-25T11:14:50.915Z,27.30
2023-01-25T11:17:27.967Z,27.00
2023-01-25T11:20:17.352Z,26.43
2023-01-25T11:22:57.420Z,25.73
2023-01-25T11:25:32.711Z,25.77
2023-01-25T11:28:19.805Z,25.13
2023-01-25T11:30:49.325Z,26.33
2023-01-25T11:33:22.472Z,26.20
2023-01-25T11:36:28.917Z,24.80
2023-01-25T11:39:14.401Z,24.77
2023-01-25T11:41:58.485Z,25.50
2023-01-25T11:45:03.555Z,25.47
2023-01-25T11:47:55.921Z,24.43
2023-01-25T11:50:35.643Z,26.37
2023-01-25T11:53:45.010Z,25.60
2023-01-25T11:56:26.416Z,26.10
2023-01-25T11:59:10.998Z,25.97
2023-01-25T12:01:57.508Z,25.63
2023-01-25T12:04:59.767Z,24.63
2023-01-25T12:07:42.866Z,23.93
2023-01-25T12:10:25.275Z,26.30
2023-01-25T12:13:01.905Z,22.67
2023-01-25T12:16:03.386Z,23.47
2023-01-25T12:19:03.276Z,23.83
2023-01-25T12:21:59.954Z,22.17
2023-01-25T12:24:45.385Z,21.33
2023-01-25T12:27:32.253Z,23.47
2023-01-25T12:30:13.745Z,23.33
2023-01-25T12:32:50.126Z,24.00
2023-01-25T12:35:39.648Z,21.80
2023-01-25T12:38:17.537Z,24.87
2023-01-25T12:40:55.855Z,24.67
2023-01-25T12:43:31.598Z,23.73
2023-01-25T12:46:03.720Z,25.53
2023-01-25T12:48:37.547Z,22.40
2023-01-25T12:51:06.675Z,24.93
2023-01-25T12:53:39.852Z,23.70
2023-01-25T12:56:22.565Z,21.87
2023-01-25T12:58:56.114Z,24.30
2023-01-25T13:01:33.670Z,22.90
2023-01-25T13:04:21.141Z,23.33
2023-01-25T13:06:55.000Z,22.60
2023-01-25T13:09:31.493Z,24.53
2023-01-25T13:12:04.908Z,22.33
2023-01-25T13:14:39.228Z,22.70
2023-01-25T13:17:23.575Z,22.13
2023-01-25T13:19:54.944Z,22.67
2023-01-25T13:22:59.065Z,23.97
2023-01-25T13:25:28.610Z,21.27
2023-01-25T13:28:45.582Z,22.47
2023-01-25T13:31:53.486Z,24.20
2023-01-25T13:34:58.779Z,23.57
2023-01-25T13:37:29.824Z,23.53
2023-01-25T13:40:06.347Z,24.10
2023-01-25T13:42:37.105Z,23.63
2023-01-25T13:45:18.501Z,22.20
2023-01-25T13:48:01.561Z,22.40
2023-01-25T13:50:36.377Z,23.73
2023-01-25T13:53:08.004Z,22.10
2023-01-25T13:55:43.444Z,23.47
2023-01-25T13:58:16.418Z,26.40
2023-01-25T14:00:54.568Z,23.70
2023-01-25T14:03:27.900Z,26.80
2023-01-25T14:05:59.334Z,23.57
2023-01-25T14:08:28.559Z,24.00
2023-01-25T14:10:59.698Z,24.07
2023-01-25T14:13:28.024Z,26.67
2023-01-25T14:16:00.950Z,24.90
2023-01-25T14:18:32.310Z,24.50
2023-01-25T14:21:17.534Z,26.30
2023-01-25T14:23:46.737Z,26.23
2023-01-25T14:26:27.345Z,25.63
2023-01-25T14:29:01.934Z,24.40
2023-01-25T14:31:38.119Z,25.30
2023-01-25T14:34:08.625Z,25.00
2023-01-25T14:36:37.188Z,24.83
2023-01-25T14:39:18.713Z,25.73
2023-01-25T14:42:00.994Z,23.90
2023-01-25T14:44:31.131Z,26.00
2023-01-25T14:47:36.550Z,26.47
2023-01-25T14:50:32.097Z,26.97
2023-01-25T14:53:07.725Z,24.43
2023-01-25T14:55:37.884Z,26.00
2023-01-25T14:58:08.560Z,27.03
2023-01-25T15:00:38.770Z,24.50
2023-01-25T15:03:17.271Z,25.83
2023-01-25T15:05:48.080Z,25.60
2023-01-25T15:08:28.954Z,25.40
2023-01-25T15:11:19.012Z,27.03
2023-01-25T15:13:48.079Z,26.37
2023-01-25T15:16:17.182Z,27.37
2023-01-25T15:18:50.680Z,28.13
2023-01-25T15:21:20.609Z,27.87
2023-01-25T15:23:50.411Z,29.10
2023-01-25T15:26:24.297Z,27.00
2023-01-25T15:28:55.512Z,27.93
2023-01-25T15:31:28.408Z,27.43
2023-01-25T15:33:59.022Z,26.23
2023-01-25T15:36:28.106Z,25.30
2023-01-25T15:38:56.763Z,24.67
2023-01-25T15:41:25.294Z,26.53
2023-01-25T15:43:53.862Z,25.00
2023-01-25T15:46:26.118Z,27.90
2023-01-25T15:48:55.350Z,25.87
2023-01-25T15:51:25.350Z,26.43
2023-01-25T15:53:54.140Z,25.83
2023-01-25T15:56:24.778Z,27.37
2023-01-25T15:58:55.522Z,23.23
2023-01-25T16:01:27.382Z,26.67
2023-01-25T16:03:56.693Z,26.27
2023-01-25T16:06:40.727Z,25.23
2023-01-25T16:09:22.078Z,26.00
2023-01-25T16:11:53.665Z,26.83
2023-01-25T16:14:23.715Z,23.97
2023-01-25T16:16:54.285Z,24.23
2023-01-25T16:19:24.952Z,25.80
2023-01-25T16:21:54.941Z,25.10
2023-01-25T16:24:23.353Z,26.00
2023-01-25T16:26:55.988Z,26.33
2023-01-25T16:29:24.494Z,26.07
2023-01-25T16:31:54.522Z,27.37
2023-01-25T16:34:23.293Z,26.83
2023-01-25T16:36:52.903Z,26.17
2023-01-25T16:39:26.448Z,26.80
2023-01-25T16:41:55.894Z,25.23
2023-01-25T16:44:24.417Z,25.07
2023-01-25T16:46:52.790Z,24.40
2023-01-25T16:49:24.537Z,25.47
2023-01-25T16:51:53.304Z,24.30
2023-01-25T16:54:23.984Z,24.90
2023-01-25T16:56:53.753Z,25.00
2023-01-25T16:59:27.588Z,28.40
2023-01-25T17:01:56.888Z,26.77
2023-01-25T17:04:25.301Z,27.40
2023-01-25T17:06:54.307Z,25.93
2023-01-25T17:09:25.590Z,27.03
2023-01-25T17:11:54.904Z,25.63
2023-01-25T17:14:24.548Z,26.73
2023-01-25T17:16:55.945Z,27.20
2023-01-25T17:19:25.152Z,28.03
2023-01-25T17:21:53.568Z,25.17
2023-01-25T17:24:23.830Z,28.63
2023-01-25T17:26:56.053Z,28.97
2023-01-25T17:29:24.607Z,26.63
2023-01-25T17:31:53.177Z,26.87
2023-01-25T17:34:22.114Z,23.73
2023-01-25T17:36:52.843Z,27.87
2023-01-25T17:39:24.927Z,26.30
2023-01-25T17:41:53.713Z,28.33
2023-01-25T17:44:24.745Z,25.13
2023-01-25T17:46:53.604Z,25.97
2023-01-25T17:49:22.629Z,25.60
2023-01-25T17:51:51.313Z,27.40
2023-01-25T17:54:19.756Z,26.83
2023-01-25T17:56:49.893Z,28.77
2023-01-25T17:59:18.510Z,28.03
2023-01-25T18:01:46.954Z,28.60
2023-01-25T18:04:17.690Z,27.90
2023-01-25T18:06:46.498Z,28.00
2023-01-25T18:09:15.050Z,28.13
2023-01-25T18:11:43.533Z,29.03
2023-01-25T18:14:16.956Z,29.37
2023-01-25T18:16:45.623Z,27.17
2023-01-25T18:19:14.699Z,29.10
2023-01-25T18:21:43.645Z,27.97
2023-01-25T18:24:32.226Z,31.27
2023-01-25T18:27:06.118Z,28.93
2023-01-25T18:29:47.980Z,29.17
2023-01-25T18:32:19.396Z,29.43
2023-01-25T18:34:48.173Z,31.47
2023-01-25T18:37:20.745Z,28.53
2023-01-25T18:39:51.490Z,30.07
2023-01-25T18:42:21.515Z,30.20
2023-01-25T18:44:51.658Z,29.90
2023-01-25T18:47:22.569Z,29.13
2023-01-25T18:49:52.903Z,28.73
2023-01-25T18:52:23.527Z,31.00
2023-01-25T18:54:52.664Z,28.10
2023-01-25T18:57:21.532Z,29.57
2023-01-25T18:59:51.444Z,30.63
2023-01-25T19:02:20.837Z,29.80
2023-01-25T19:04:49.954Z,33.10
2023-01-25T19:07:18.579Z,31.17
2023-01-25T19:09:47.975Z,31.40
2023-01-25T19:12:16.441Z,29.77
2023-01-25T19:14:44.831Z,30.80
2023-01-25T19:17:14.530Z,30.77
2023-01-25T19:19:44.114Z,31.73
2023-01-25T19:22:12.570Z,29.43
2023-01-25T19:24:40.830Z,31.07
2023-01-25T19:27:09.141Z,28.93
2023-01-25T19:29:39.237Z,31.23
2023-01-25T19:32:10.724Z,32.83
2023-01-25T19:34:41.865Z,32.03
2023-01-25T19:37:10.292Z,30.10
2023-01-25T19:39:38.575Z,32.00
2023-01-25T19:42:07.068Z,30.90
2023-01-25T19:44:35.579Z,32.50
2023-01-25T19:47:04.426Z,30.17
2023-01-25T19:49:32.787Z,30.57
2023-01-25T19:52:02.549Z,30.60
2023-01-25T19:54:31.277Z,32.20
2023-01-25T19:56:59.637Z,31.37
2023-01-25T19:59:29.097Z,29.53
2023-01-25T20:01:57.879Z,33.00
2023-01-25T20:04:26.282Z,31.80
2023-01-25T20:06:54.711Z,30.67
2023-01-25T20:09:28.071Z,30.23
2023-01-25T20:11:57.903Z,30.17
2023-01-25T20:14:26.507Z,32.23
2023-01-25T20:16:55.009Z,32.37
2023-01-25T20:19:23.408Z,31.07
2023-01-25T20:21:51.847Z,31.10
2023-01-25T20:24:20.292Z,32.53
2023-01-25T20:26:51.446Z,30.57
2023-01-25T20:29:21.589Z,31.13
2023-01-25T20:31:50.225Z,31.43
2023-01-25T20:34:20.612Z,32.87
2023-01-25T20:36:49.629Z,33.57
2023-01-25T20:39:21.052Z,33.57
2023-01-25T20:41:53.816Z,32.30
2023-01-25T20:44:22.946Z,32.83
2023-01-25T20:46:54.447Z,33.23
2023-01-25T20:49:23.161Z,31.57
2023-01-25T20:51:51.759Z,29.50
2023-01-25T20:54:21.757Z,31.67
2023-01-25T20:56:51.547Z,33.23
2023-01-25T20:59:19.822Z,31.27
2023-01-25T21:01:48.209Z,30.57
2023-01-25T21:04:16.692Z,32.87
2023-01-25T21:06:45.011Z,30.87
2023-01-25T21:09:13.790Z,31.63
2023-01-25T21:11:42.457Z,30.63
2023-01-25T21:14:12.343Z,31.63
2023-01-25T21:16:40.821Z,28.60
2023-01-25T21:19:09.649Z,29.97
2023-01-25T21:21:38.590Z,29.97
2023-01-25T21:24:08.534Z,30.17
2023-01-25T21:26:38.541Z,29.17
2023-01-25T21:29:08.309Z,29.73
2023-01-25T21:31:42.552Z,29.80
2023-01-25T21:34:11.826Z,29.07
2023-01-25T21:36:40.471Z,30.03
2023-01-25T21:39:09.638Z,28.93
2023-01-25T21:41:38.484Z,27.30
2023-01-25T21:44:25.597Z,27.23
2023-01-25T21:47:23.621Z,26.37
2023-01-25T21:50:02.696Z,27.77
2023-01-25T21:52:31.269Z,26.57
2023-01-25T21:54:59.570Z,27.07
2023-01-25T21:57:28.123Z,26.33
2023-01-25T21:59:57.020Z,26.33
2023-01-25T22:02:26.869Z,25.53
2023-01-25T22:04:55.301Z,21.93
2023-01-25T22:07:24.486Z,25.17
2023-01-25T22:09:52.978Z,25.53
2023-01-25T22:12:21.352Z,24.93
2023-01-25T22:14:49.674Z,22.80
2023-01-25T22:17:19.393Z,21.83
2023-01-25T22:19:49.206Z,23.67
2023-01-25T22:22:18.065Z,23.30
2023-01-25T22:24:47.682Z,22.20
2023-01-25T22:27:47.631Z,23.67
2023-01-25T22:30:16.096Z,22.97
2023-01-25T22:32:44.882Z,23.80
2023-01-25T22:35:14.643Z,22.73
2023-01-25T22:37:42.964Z,21.70
2023-01-25T22:40:13.528Z,24.80
2023-01-25T22:42:41.978Z,19.67
2023-01-25T22:45:11.175Z,21.70
2023-01-25T22:47:41.937Z,22.90
2023-01-25T22:50:12.653Z,22.30
2023-01-25T22:52:42.467Z,24.30
2023-01-25T22:55:11.318Z,22.73
2023-01-25T22:57:39.627Z,20.57
2023-01-25T23:00:12.189Z,24.00
2023-01-25T23:02:40.657Z,21.47
2023-01-25T23:05:09.799Z,23.37
2023-01-25T23:07:38.188Z,23.07
2023-01-25T23:10:10.114Z,21.33
2023-01-25T23:12:38.756Z,23.03
2023-01-25T23:15:15.791Z,20.60
2023-01-25T23:18:10.472Z,20.60
2023-01-25T23:20:38.863Z,19.93
2023-01-25T23:23:07.281Z,21.17
2023-01-25T23:25:39.658Z,20.00
2023-01-25T23:28:08.150Z,20.97
2023-01-25T23:30:36.707Z,20.10
2023-01-25T23:33:05.338Z,20.90
2023-01-25T23:35:33.685Z,19.87
2023-01-25T23:38:02.111Z,20.37
2023-01-25T23:40:30.438Z,20.30
2023-01-25T23:43:00.096Z,19.63
2023-01-25T23:45:28.439Z,21.13
2023-01-25T23:47:56.798Z,19.77
2023-01-25T23:50:25.205Z,18.77
2023-01-25T23:52:53.881Z,19.70
2023-01-25T23:55:22.196Z,18.90
2023-01-25T23:57:50.577Z,19.53
